sensor_id;sensor_type;location;lat;lon;timestamp;temperature;humidity
48416;DHT22;34227;51.840;4.146;2022-11-18T00:03:34;9.20;99.90
48416;DHT22;34227;51.840;4.146;2022-11-18T00:06:00;9.20;99.90
48416;DHT22;34227;51.840;4.146;2022-11-18T00:08:25;9.20;99.90
48416;DHT22;34227;51.840;4.146;2022-11-18T00:10:51;9.20;99.90
48416;DHT22;34227;51.840;4.146;2022-11-18T00:13:17;9.20;99.90
48416;DHT22;34227;51.840;4.146;2022-11-18T00:16:08;9.20;99.90
48416;DHT22;34227;51.840;4.146;2022-11-18T00:18:33;9.20;99.90
48416;DHT22;34227;51.840;4.146;2022-11-18T00:21:00;9.20;99.90
48416;DHT22;34227;51.840;4.146;2022-11-18T00:23:25;9.20;99.90
48416;DHT22;34227;51.840;4.146;2022-11-18T00:25:51;9.20;99.90
48416;DHT22;34227;51.840;4.146;2022-11-18T00:28:16;9.20;99.90
48416;DHT22;34227;51.840;4.146;2022-11-18T00:30:42;9.20;99.90
48416;DHT22;34227;51.840;4.146;2022-11-18T00:33:07;9.20;99.90
48416;DHT22;34227;51.840;4.146;2022-11-18T00:35:33;9.10;99.90
48416;DHT22;34227;51.840;4.146;2022-11-18T00:37:58;9.10;99.90
48416;DHT22;34227;51.840;4.146;2022-11-18T00:40:24;9.10;99.90
48416;DHT22;34227;51.840;4.146;2022-11-18T00:42:50;9.10;99.90
48416;DHT22;34227;51.840;4.146;2022-11-18T00:45:16;9.10;99.90
48416;DHT22;34227;51.840;4.146;2022-11-18T00:47:41;9.10;99.90
48416;DHT22;34227;51.840;4.146;2022-11-18T00:50:07;9.10;99.90
48416;DHT22;34227;51.840;4.146;2022-11-18T00:52:32;9.10;99.90
48416;DHT22;34227;51.840;4.146;2022-11-18T00:54:58;9.10;99.90
48416;DHT22;34227;51.840;4.146;2022-11-18T00:57:23;9.10;99.90
48416;DHT22;34227;51.840;4.146;2022-11-18T00:59:49;9.10;99.90
48416;DHT22;34227;51.840;4.146;2022-11-18T01:02:14;9.00;99.90
48416;DHT22;34227;51.840;4.146;2022-11-18T01:04:40;9.00;99.90
48416;DHT22;34227;51.840;4.146;2022-11-18T01:07:05;9.00;99.90
48416;DHT22;34227;51.840;4.146;2022-11-18T01:09:31;9.10;99.90
48416;DHT22;34227;51.840;4.146;2022-11-18T01:11:56;9.00;99.90
48416;DHT22;34227;51.840;4.146;2022-11-18T01:14:40;9.00;99.90
48416;DHT22;34227;51.840;4.146;2022-11-18T01:17:06;9.00;99.90
48416;DHT22;34227;51.840;4.146;2022-11-18T01:19:31;9.00;99.90
48416;DHT22;34227;51.840;4.146;2022-11-18T01:21:57;9.00;99.90
48416;DHT22;34227;51.840;4.146;2022-11-18T01:24:33;8.90;99.90
48416;DHT22;34227;51.840;4.146;2022-11-18T01:27:01;8.90;99.90
48416;DHT22;34227;51.840;4.146;2022-11-18T01:29:27;9.00;99.90
48416;DHT22;34227;51.840;4.146;2022-11-18T01:31:53;9.00;99.90
48416;DHT22;34227;51.840;4.146;2022-11-18T01:34:18;8.90;99.90
48416;DHT22;34227;51.840;4.146;2022-11-18T01:36:44;8.90;99.90
48416;DHT22;34227;51.840;4.146;2022-11-18T01:39:09;8.90;99.90
48416;DHT22;34227;51.840;4.146;2022-11-18T01:41:35;8.90;99.90
48416;DHT22;34227;51.840;4.146;2022-11-18T01:44:03;8.90;99.90
48416;DHT22;34227;51.840;4.146;2022-11-18T01:46:30;8.90;99.90
48416;DHT22;34227;51.840;4.146;2022-11-18T01:51:32;8.90;99.90
48416;DHT22;34227;51.840;4.146;2022-11-18T01:54:02;8.80;99.90
48416;DHT22;34227;51.840;4.146;2022-11-18T01:56:33;8.80;99.90
48416;DHT22;34227;51.840;4.146;2022-11-18T01:59:02;8.80;99.90
48416;DHT22;34227;51.840;4.146;2022-11-18T02:01:30;8.80;99.90
48416;DHT22;34227;51.840;4.146;2022-11-18T02:03:56;8.80;99.90
48416;DHT22;34227;51.840;4.146;2022-11-18T02:06:22;8.80;99.90
48416;DHT22;34227;51.840;4.146;2022-11-18T02:08:48;8.80;99.90
48416;DHT22;34227;51.840;4.146;2022-11-18T02:11:14;8.80;99.90
48416;DHT22;34227;51.840;4.146;2022-11-18T02:13:59;8.80;99.90
48416;DHT22;34227;51.840;4.146;2022-11-18T02:16:31;8.70;99.90
48416;DHT22;34227;51.840;4.146;2022-11-18T02:27:08;8.70;99.90
48416;DHT22;34227;51.840;4.146;2022-11-18T02:29:44;8.70;99.90
48416;DHT22;34227;51.840;4.146;2022-11-18T02:32:18;8.70;99.90
48416;DHT22;34227;51.840;4.146;2022-11-18T02:37:23;8.70;99.90
48416;DHT22;34227;51.840;4.146;2022-11-18T02:42:18;8.70;99.90
48416;DHT22;34227;51.840;4.146;2022-11-18T02:44:46;8.70;99.90
48416;DHT22;34227;51.840;4.146;2022-11-18T02:47:14;8.70;99.90
48416;DHT22;34227;51.840;4.146;2022-11-18T02:49:43;8.70;99.90
48416;DHT22;34227;51.840;4.146;2022-11-18T02:52:11;8.70;99.90
48416;DHT22;34227;51.840;4.146;2022-11-18T02:54:38;8.80;99.90
48416;DHT22;34227;51.840;4.146;2022-11-18T02:57:04;8.80;99.90
48416;DHT22;34227;51.840;4.146;2022-11-18T02:59:30;8.80;99.90
48416;DHT22;34227;51.840;4.146;2022-11-18T03:01:56;8.80;99.90
48416;DHT22;34227;51.840;4.146;2022-11-18T03:04:22;8.80;99.90
48416;DHT22;34227;51.840;4.146;2022-11-18T03:06:48;8.80;99.90
48416;DHT22;34227;51.840;4.146;2022-11-18T03:09:23;8.80;99.90
48416;DHT22;34227;51.840;4.146;2022-11-18T03:14:37;8.90;99.90
48416;DHT22;34227;51.840;4.146;2022-11-18T03:17:08;8.90;99.90
48416;DHT22;34227;51.840;4.146;2022-11-18T03:24:40;8.90;99.90
48416;DHT22;34227;51.840;4.146;2022-11-18T03:27:09;8.90;99.90
48416;DHT22;34227;51.840;4.146;2022-11-18T03:29:41;8.90;99.90
48416;DHT22;34227;51.840;4.146;2022-11-18T03:32:10;8.90;99.90
48416;DHT22;34227;51.840;4.146;2022-11-18T03:34:38;8.90;99.90
48416;DHT22;34227;51.840;4.146;2022-11-18T03:37:07;8.90;99.90
48416;DHT22;34227;51.840;4.146;2022-11-18T03:39:34;8.90;99.90
48416;DHT22;34227;51.840;4.146;2022-11-18T03:42:04;8.90;99.90
48416;DHT22;34227;51.840;4.146;2022-11-18T03:44:32;8.90;99.90
48416;DHT22;34227;51.840;4.146;2022-11-18T03:47:03;8.90;99.90
48416;DHT22;34227;51.840;4.146;2022-11-18T03:49:32;8.90;99.90
48416;DHT22;34227;51.840;4.146;2022-11-18T03:52:10;8.90;99.90
48416;DHT22;34227;51.840;4.146;2022-11-18T03:54:37;8.90;99.90
48416;DHT22;34227;51.840;4.146;2022-11-18T03:57:12;8.90;99.90
48416;DHT22;34227;51.840;4.146;2022-11-18T03:59:45;8.90;99.90
48416;DHT22;34227;51.840;4.146;2022-11-18T04:02:13;8.90;99.90
48416;DHT22;34227;51.840;4.146;2022-11-18T04:04:39;8.90;99.90
48416;DHT22;34227;51.840;4.146;2022-11-18T04:07:08;8.80;99.90
48416;DHT22;34227;51.840;4.146;2022-11-18T04:12:28;8.90;99.90
48416;DHT22;34227;51.840;4.146;2022-11-18T04:14:55;8.90;99.90
48416;DHT22;34227;51.840;4.146;2022-11-18T04:17:22;8.90;99.90
48416;DHT22;34227;51.840;4.146;2022-11-18T04:19:48;8.80;99.90
48416;DHT22;34227;51.840;4.146;2022-11-18T04:22:14;8.80;99.90
48416;DHT22;34227;51.840;4.146;2022-11-18T04:24:40;8.80;99.90
48416;DHT22;34227;51.840;4.146;2022-11-18T04:27:05;8.80;99.90
48416;DHT22;34227;51.840;4.146;2022-11-18T04:29:31;8.80;99.90
48416;DHT22;34227;51.840;4.146;2022-11-18T04:31:58;8.80;99.90
48416;DHT22;34227;51.840;4.146;2022-11-18T04:34:23;8.80;99.90
48416;DHT22;34227;51.840;4.146;2022-11-18T04:36:49;8.80;99.90
48416;DHT22;34227;51.840;4.146;2022-11-18T04:39:15;8.80;99.90
48416;DHT22;34227;51.840;4.146;2022-11-18T04:41:42;8.80;99.90
48416;DHT22;34227;51.840;4.146;2022-11-18T04:44:27;8.80;99.90
48416;DHT22;34227;51.840;4.146;2022-11-18T04:46:53;8.80;99.90
48416;DHT22;34227;51.840;4.146;2022-11-18T04:49:19;8.80;99.90
48416;DHT22;34227;51.840;4.146;2022-11-18T04:51:45;8.80;99.90
48416;DHT22;34227;51.840;4.146;2022-11-18T04:54:11;8.80;99.90
48416;DHT22;34227;51.840;4.146;2022-11-18T04:56:37;8.80;99.90
48416;DHT22;34227;51.840;4.146;2022-11-18T04:59:03;8.80;99.90
48416;DHT22;34227;51.840;4.146;2022-11-18T05:01:29;8.70;99.90
48416;DHT22;34227;51.840;4.146;2022-11-18T05:03:55;8.70;99.90
48416;DHT22;34227;51.840;4.146;2022-11-18T05:06:20;8.70;99.90
48416;DHT22;34227;51.840;4.146;2022-11-18T05:08:46;8.80;99.90
48416;DHT22;34227;51.840;4.146;2022-11-18T05:11:12;8.80;99.90
48416;DHT22;34227;51.840;4.146;2022-11-18T05:13:56;8.70;99.90
48416;DHT22;34227;51.840;4.146;2022-11-18T05:16:21;8.80;99.90
48416;DHT22;34227;51.840;4.146;2022-11-18T05:18:47;8.70;99.90
48416;DHT22;34227;51.840;4.146;2022-11-18T05:21:12;8.80;99.90
48416;DHT22;34227;51.840;4.146;2022-11-18T05:23:38;8.70;99.90
48416;DHT22;34227;51.840;4.146;2022-11-18T05:26:07;8.70;99.90
48416;DHT22;34227;51.840;4.146;2022-11-18T05:28:33;8.70;99.90
48416;DHT22;34227;51.840;4.146;2022-11-18T05:30:59;8.70;99.90
48416;DHT22;34227;51.840;4.146;2022-11-18T05:33:25;8.70;99.90
48416;DHT22;34227;51.840;4.146;2022-11-18T05:35:50;8.70;99.90
48416;DHT22;34227;51.840;4.146;2022-11-18T05:38:16;8.70;99.90
48416;DHT22;34227;51.840;4.146;2022-11-18T05:40:42;8.70;99.90
48416;DHT22;34227;51.840;4.146;2022-11-18T05:43:08;8.70;99.90
48416;DHT22;34227;51.840;4.146;2022-11-18T05:45:39;8.70;99.90
48416;DHT22;34227;51.840;4.146;2022-11-18T05:48:05;8.70;99.90
48416;DHT22;34227;51.840;4.146;2022-11-18T05:50:32;8.70;99.90
48416;DHT22;34227;51.840;4.146;2022-11-18T05:52:58;8.70;99.90
48416;DHT22;34227;51.840;4.146;2022-11-18T05:55:24;8.70;99.90
48416;DHT22;34227;51.840;4.146;2022-11-18T05:57:51;8.70;99.90
48416;DHT22;34227;51.840;4.146;2022-11-18T06:00:17;8.70;99.90
48416;DHT22;34227;51.840;4.146;2022-11-18T06:02:42;8.70;99.90
48416;DHT22;34227;51.840;4.146;2022-11-18T06:05:10;8.70;99.90
48416;DHT22;34227;51.840;4.146;2022-11-18T06:07:37;8.70;99.90
48416;DHT22;34227;51.840;4.146;2022-11-18T06:10:04;8.70;99.90
48416;DHT22;34227;51.840;4.146;2022-11-18T06:12:30;8.70;99.90
48416;DHT22;34227;51.840;4.146;2022-11-18T06:15:02;8.70;99.90
48416;DHT22;34227;51.840;4.146;2022-11-18T06:17:31;8.80;99.90
48416;DHT22;34227;51.840;4.146;2022-11-18T06:19:58;8.70;99.90
48416;DHT22;34227;51.840;4.146;2022-11-18T06:22:23;8.80;99.90
48416;DHT22;34227;51.840;4.146;2022-11-18T06:24:49;8.80;99.90
48416;DHT22;34227;51.840;4.146;2022-11-18T06:27:15;8.80;99.90
48416;DHT22;34227;51.840;4.146;2022-11-18T06:29:41;8.80;99.90
48416;DHT22;34227;51.840;4.146;2022-11-18T06:32:06;8.80;99.90
48416;DHT22;34227;51.840;4.146;2022-11-18T06:34:32;8.80;99.90
48416;DHT22;34227;51.840;4.146;2022-11-18T06:36:57;8.80;99.90
48416;DHT22;34227;51.840;4.146;2022-11-18T06:39:23;8.80;99.90
48416;DHT22;34227;51.840;4.146;2022-11-18T06:41:50;8.80;99.90
48416;DHT22;34227;51.840;4.146;2022-11-18T06:44:16;8.90;99.90
48416;DHT22;34227;51.840;4.146;2022-11-18T06:46:42;8.80;99.90
48416;DHT22;34227;51.840;4.146;2022-11-18T06:49:19;8.90;99.90
48416;DHT22;34227;51.840;4.146;2022-11-18T06:51:45;8.90;99.90
48416;DHT22;34227;51.840;4.146;2022-11-18T06:54:10;8.90;99.90
48416;DHT22;34227;51.840;4.146;2022-11-18T06:56:36;8.90;99.90
48416;DHT22;34227;51.840;4.146;2022-11-18T06:59:02;8.90;99.90
48416;DHT22;34227;51.840;4.146;2022-11-18T07:01:28;8.90;99.90
48416;DHT22;34227;51.840;4.146;2022-11-18T07:03:56;8.90;99.90
48416;DHT22;34227;51.840;4.146;2022-11-18T07:06:22;8.90;99.90
48416;DHT22;34227;51.840;4.146;2022-11-18T07:08:48;8.90;99.90
48416;DHT22;34227;51.840;4.146;2022-11-18T07:11:15;8.90;99.90
48416;DHT22;34227;51.840;4.146;2022-11-18T07:13:41;8.90;99.90
48416;DHT22;34227;51.840;4.146;2022-11-18T07:18:33;9.00;99.90
48416;DHT22;34227;51.840;4.146;2022-11-18T07:21:00;9.00;99.90
48416;DHT22;34227;51.840;4.146;2022-11-18T07:23:27;9.00;99.90
48416;DHT22;34227;51.840;4.146;2022-11-18T07:25:53;9.00;99.90
48416;DHT22;34227;51.840;4.146;2022-11-18T07:28:19;9.00;99.90
48416;DHT22;34227;51.840;4.146;2022-11-18T07:30:44;9.00;99.90
48416;DHT22;34227;51.840;4.146;2022-11-18T07:33:10;9.00;99.90
48416;DHT22;34227;51.840;4.146;2022-11-18T07:35:35;9.00;99.90
48416;DHT22;34227;51.840;4.146;2022-11-18T07:38:01;9.00;99.90
48416;DHT22;34227;51.840;4.146;2022-11-18T07:40:26;9.00;99.90
48416;DHT22;34227;51.840;4.146;2022-11-18T07:42:52;9.00;99.90
48416;DHT22;34227;51.840;4.146;2022-11-18T07:45:18;9.00;99.90
48416;DHT22;34227;51.840;4.146;2022-11-18T07:47:45;9.00;99.90
48416;DHT22;34227;51.840;4.146;2022-11-18T07:50:10;9.00;99.90
48416;DHT22;34227;51.840;4.146;2022-11-18T07:52:36;9.00;99.90
48416;DHT22;34227;51.840;4.146;2022-11-18T07:55:03;9.10;99.90
48416;DHT22;34227;51.840;4.146;2022-11-18T07:57:30;9.10;99.90
48416;DHT22;34227;51.840;4.146;2022-11-18T07:59:56;9.10;99.90
48416;DHT22;34227;51.840;4.146;2022-11-18T08:02:21;9.10;99.90
48416;DHT22;34227;51.840;4.146;2022-11-18T08:04:47;9.10;99.90
48416;DHT22;34227;51.840;4.146;2022-11-18T08:07:12;9.10;99.90
48416;DHT22;34227;51.840;4.146;2022-11-18T08:09:38;9.10;99.90
48416;DHT22;34227;51.840;4.146;2022-11-18T08:12:04;9.10;99.90
48416;DHT22;34227;51.840;4.146;2022-11-18T08:14:29;9.20;99.90
48416;DHT22;34227;51.840;4.146;2022-11-18T08:16:55;9.20;99.90
48416;DHT22;34227;51.840;4.146;2022-11-18T08:19:20;9.20;99.90
48416;DHT22;34227;51.840;4.146;2022-11-18T08:21:46;9.20;99.90
48416;DHT22;34227;51.840;4.146;2022-11-18T08:24:11;9.20;99.90
48416;DHT22;34227;51.840;4.146;2022-11-18T08:26:37;9.20;99.90
48416;DHT22;34227;51.840;4.146;2022-11-18T08:29:03;9.20;99.90
48416;DHT22;34227;51.840;4.146;2022-11-18T08:31:29;9.20;99.90
48416;DHT22;34227;51.840;4.146;2022-11-18T08:36:21;9.30;99.90
48416;DHT22;34227;51.840;4.146;2022-11-18T08:38:47;9.30;99.90
48416;DHT22;34227;51.840;4.146;2022-11-18T08:41:12;9.30;99.90
48416;DHT22;34227;51.840;4.146;2022-11-18T08:43:38;9.30;99.90
48416;DHT22;34227;51.840;4.146;2022-11-18T08:46:04;9.30;99.90
48416;DHT22;34227;51.840;4.146;2022-11-18T08:48:30;9.30;99.90
48416;DHT22;34227;51.840;4.146;2022-11-18T08:50:56;9.30;99.90
48416;DHT22;34227;51.840;4.146;2022-11-18T08:53:22;9.40;99.90
48416;DHT22;34227;51.840;4.146;2022-11-18T08:55:53;9.40;99.90
48416;DHT22;34227;51.840;4.146;2022-11-18T08:58:18;9.40;99.90
48416;DHT22;34227;51.840;4.146;2022-11-18T09:00:44;9.40;99.90
48416;DHT22;34227;51.840;4.146;2022-11-18T09:03:09;9.40;99.90
48416;DHT22;34227;51.840;4.146;2022-11-18T09:05:35;9.40;99.90
48416;DHT22;34227;51.840;4.146;2022-11-18T09:08:01;9.50;99.90
48416;DHT22;34227;51.840;4.146;2022-11-18T09:10:26;9.50;99.90
48416;DHT22;34227;51.840;4.146;2022-11-18T09:12:53;9.50;99.90
48416;DHT22;34227;51.840;4.146;2022-11-18T09:15:18;9.50;99.90
48416;DHT22;34227;51.840;4.146;2022-11-18T09:17:44;9.50;99.90
48416;DHT22;34227;51.840;4.146;2022-11-18T09:20:09;9.50;99.90
48416;DHT22;34227;51.840;4.146;2022-11-18T09:22:35;9.50;99.90
48416;DHT22;34227;51.840;4.146;2022-11-18T09:25:01;9.60;99.90
48416;DHT22;34227;51.840;4.146;2022-11-18T09:27:27;9.50;99.90
48416;DHT22;34227;51.840;4.146;2022-11-18T09:29:52;9.60;99.90
48416;DHT22;34227;51.840;4.146;2022-11-18T09:32:18;9.60;99.90
48416;DHT22;34227;51.840;4.146;2022-11-18T09:34:44;9.60;99.90
48416;DHT22;34227;51.840;4.146;2022-11-18T09:37:09;9.70;99.90
48416;DHT22;34227;51.840;4.146;2022-11-18T09:39:35;9.70;99.90
48416;DHT22;34227;51.840;4.146;2022-11-18T09:49:33;9.80;99.90
48416;DHT22;34227;51.840;4.146;2022-11-18T09:52:01;9.90;99.90
48416;DHT22;34227;51.840;4.146;2022-11-18T09:54:29;9.90;99.90
48416;DHT22;34227;51.840;4.146;2022-11-18T09:56:55;9.90;99.90
48416;DHT22;34227;51.840;4.146;2022-11-18T09:59:22;10.00;99.90
48416;DHT22;34227;51.840;4.146;2022-11-18T10:01:48;10.10;99.90
48416;DHT22;34227;51.840;4.146;2022-11-18T10:04:15;10.10;99.90
48416;DHT22;34227;51.840;4.146;2022-11-18T10:06:41;10.10;99.90
48416;DHT22;34227;51.840;4.146;2022-11-18T10:12:03;10.10;99.90
48416;DHT22;34227;51.840;4.146;2022-11-18T10:24:44;10.30;99.90
48416;DHT22;34227;51.840;4.146;2022-11-18T10:27:10;10.30;99.90
48416;DHT22;34227;51.840;4.146;2022-11-18T10:29:37;10.30;99.90
48416;DHT22;34227;51.840;4.146;2022-11-18T10:32:03;10.30;99.90
48416;DHT22;34227;51.840;4.146;2022-11-18T10:34:29;10.40;99.90
48416;DHT22;34227;51.840;4.146;2022-11-18T10:39:24;10.40;99.90
48416;DHT22;34227;51.840;4.146;2022-11-18T10:41:50;10.50;99.90
48416;DHT22;34227;51.840;4.146;2022-11-18T10:49:38;10.60;99.90
48416;DHT22;34227;51.840;4.146;2022-11-18T10:52:08;10.60;99.90
48416;DHT22;34227;51.840;4.146;2022-11-18T10:54:38;10.60;99.90
48416;DHT22;34227;51.840;4.146;2022-11-18T11:04:45;10.80;99.90
48416;DHT22;34227;51.840;4.146;2022-11-18T11:09:39;10.80;99.90
48416;DHT22;34227;51.840;4.146;2022-11-18T11:12:17;10.90;99.90
48416;DHT22;34227;51.840;4.146;2022-11-18T11:14:48;10.90;99.90
48416;DHT22;34227;51.840;4.146;2022-11-18T11:17:21;10.90;99.90
48416;DHT22;34227;51.840;4.146;2022-11-18T11:20:01;11.00;99.90
48416;DHT22;34227;51.840;4.146;2022-11-18T11:22:28;11.00;99.90
48416;DHT22;34227;51.840;4.146;2022-11-18T11:24:57;11.00;99.90
48416;DHT22;34227;51.840;4.146;2022-11-18T11:30:17;11.10;99.90
48416;DHT22;34227;51.840;4.146;2022-11-18T11:32:59;11.10;99.90
48416;DHT22;34227;51.840;4.146;2022-11-18T11:35:29;11.10;99.90
48416;DHT22;34227;51.840;4.146;2022-11-18T11:37:57;11.10;99.90
48416;DHT22;34227;51.840;4.146;2022-11-18T11:49:14;11.20;99.90
48416;DHT22;34227;51.840;4.146;2022-11-18T11:56:54;11.20;99.90
48416;DHT22;34227;51.840;4.146;2022-11-18T12:06:56;11.20;99.90
48416;DHT22;34227;51.840;4.146;2022-11-18T12:09:25;11.20;99.90
48416;DHT22;34227;51.840;4.146;2022-11-18T12:12:00;11.20;99.90
48416;DHT22;34227;51.840;4.146;2022-11-18T12:14:45;11.20;99.90
48416;DHT22;34227;51.840;4.146;2022-11-18T12:17:14;11.20;99.90
48416;DHT22;34227;51.840;4.146;2022-11-18T12:19:42;11.20;99.90
48416;DHT22;34227;51.840;4.146;2022-11-18T12:22:08;11.20;99.90
48416;DHT22;34227;51.840;4.146;2022-11-18T12:24:34;11.20;99.90
48416;DHT22;34227;51.840;4.146;2022-11-18T12:29:37;11.20;99.90
48416;DHT22;34227;51.840;4.146;2022-11-18T12:34:54;11.20;99.90
48416;DHT22;34227;51.840;4.146;2022-11-18T12:50:48;11.20;99.90
48416;DHT22;34227;51.840;4.146;2022-11-18T12:53:34;11.20;99.90
48416;DHT22;34227;51.840;4.146;2022-11-18T12:56:22;11.20;99.90
48416;DHT22;34227;51.840;4.146;2022-11-18T12:58:48;11.10;99.90
48416;DHT22;34227;51.840;4.146;2022-11-18T13:01:15;11.10;99.90
48416;DHT22;34227;51.840;4.146;2022-11-18T13:03:42;11.10;99.90
48416;DHT22;34227;51.840;4.146;2022-11-18T13:06:18;11.10;99.90
48416;DHT22;34227;51.840;4.146;2022-11-18T13:08:49;11.10;99.90
48416;DHT22;34227;51.840;4.146;2022-11-18T13:11:16;11.10;99.90
48416;DHT22;34227;51.840;4.146;2022-11-18T13:14:01;11.10;99.90
48416;DHT22;34227;51.840;4.146;2022-11-18T13:16:47;11.00;99.90
48416;DHT22;34227;51.840;4.146;2022-11-18T13:19:30;11.00;99.90
48416;DHT22;34227;51.840;4.146;2022-11-18T13:21:57;11.00;99.90
48416;DHT22;34227;51.840;4.146;2022-11-18T13:24:42;11.00;99.90
48416;DHT22;34227;51.840;4.146;2022-11-18T13:27:08;11.00;99.90
48416;DHT22;34227;51.840;4.146;2022-11-18T13:29:44;10.90;99.90
48416;DHT22;34227;51.840;4.146;2022-11-18T13:34:46;10.90;99.90
48416;DHT22;34227;51.840;4.146;2022-11-18T13:37:16;10.90;99.90
48416;DHT22;34227;51.840;4.146;2022-11-18T13:39:43;10.90;99.90
48416;DHT22;34227;51.840;4.146;2022-11-18T13:42:19;10.90;99.90
48416;DHT22;34227;51.840;4.146;2022-11-18T13:44:52;10.90;99.90
48416;DHT22;34227;51.840;4.146;2022-11-18T13:52:39;10.90;99.90
48416;DHT22;34227;51.840;4.146;2022-11-18T13:55:06;10.80;99.90
48416;DHT22;34227;51.840;4.146;2022-11-18T13:57:34;10.80;99.90
48416;DHT22;34227;51.840;4.146;2022-11-18T14:00:02;10.80;99.90
48416;DHT22;34227;51.840;4.146;2022-11-18T14:02:34;10.80;99.90
48416;DHT22;34227;51.840;4.146;2022-11-18T14:05:02;10.80;99.90
48416;DHT22;34227;51.840;4.146;2022-11-18T14:07:29;10.80;99.90
48416;DHT22;34227;51.840;4.146;2022-11-18T14:09:57;10.70;99.90
48416;DHT22;34227;51.840;4.146;2022-11-18T14:12:27;10.80;99.90
48416;DHT22;34227;51.840;4.146;2022-11-18T14:15:10;10.70;99.90
48416;DHT22;34227;51.840;4.146;2022-11-18T14:17:37;10.70;99.90
48416;DHT22;34227;51.840;4.146;2022-11-18T14:20:06;10.70;99.90
48416;DHT22;34227;51.840;4.146;2022-11-18T14:22:32;10.70;99.90
48416;DHT22;34227;51.840;4.146;2022-11-18T14:25:03;10.70;99.90
48416;DHT22;34227;51.840;4.146;2022-11-18T14:27:40;10.70;99.90
48416;DHT22;34227;51.840;4.146;2022-11-18T14:35:32;10.60;99.90
48416;DHT22;34227;51.840;4.146;2022-11-18T14:37:57;10.60;99.90
48416;DHT22;34227;51.840;4.146;2022-11-18T14:40:23;10.60;99.90
48416;DHT22;34227;51.840;4.146;2022-11-18T14:42:48;10.60;99.90
48416;DHT22;34227;51.840;4.146;2022-11-18T14:45:14;10.60;99.90
48416;DHT22;34227;51.840;4.146;2022-11-18T14:47:39;10.60;99.90
48416;DHT22;34227;51.840;4.146;2022-11-18T14:50:12;10.60;99.90
48416;DHT22;34227;51.840;4.146;2022-11-18T14:52:38;10.60;99.90
48416;DHT22;34227;51.840;4.146;2022-11-18T14:55:03;10.60;99.90
48416;DHT22;34227;51.840;4.146;2022-11-18T14:57:29;10.60;99.90
48416;DHT22;34227;51.840;4.146;2022-11-18T14:59:54;10.60;99.90
48416;DHT22;34227;51.840;4.146;2022-11-18T15:02:20;10.60;99.90
48416;DHT22;34227;51.840;4.146;2022-11-18T15:04:45;10.60;99.90
48416;DHT22;34227;51.840;4.146;2022-11-18T15:07:12;10.60;99.90
48416;DHT22;34227;51.840;4.146;2022-11-18T15:09:38;10.60;99.90
48416;DHT22;34227;51.840;4.146;2022-11-18T15:12:04;10.60;99.90
48416;DHT22;34227;51.840;4.146;2022-11-18T15:14:30;10.60;99.90
48416;DHT22;34227;51.840;4.146;2022-11-18T15:16:55;10.60;99.90
48416;DHT22;34227;51.840;4.146;2022-11-18T15:19:21;10.60;99.90
48416;DHT22;34227;51.840;4.146;2022-11-18T15:21:46;10.60;99.90
48416;DHT22;34227;51.840;4.146;2022-11-18T15:24:12;10.60;99.90
48416;DHT22;34227;51.840;4.146;2022-11-18T15:26:39;10.60;99.90
48416;DHT22;34227;51.840;4.146;2022-11-18T15:29:13;10.60;99.90
48416;DHT22;34227;51.840;4.146;2022-11-18T15:31:40;10.60;99.90
48416;DHT22;34227;51.840;4.146;2022-11-18T15:34:05;10.50;99.90
48416;DHT22;34227;51.840;4.146;2022-11-18T15:36:31;10.60;99.90
48416;DHT22;34227;51.840;4.146;2022-11-18T15:38:56;10.60;99.90
48416;DHT22;34227;51.840;4.146;2022-11-18T15:41:23;10.60;99.90
48416;DHT22;34227;51.840;4.146;2022-11-18T15:43:50;10.60;99.90
48416;DHT22;34227;51.840;4.146;2022-11-18T15:46:17;10.60;99.90
48416;DHT22;34227;51.840;4.146;2022-11-18T15:48:45;10.60;99.90
48416;DHT22;34227;51.840;4.146;2022-11-18T15:51:12;10.60;99.90
48416;DHT22;34227;51.840;4.146;2022-11-18T15:53:38;10.60;99.90
48416;DHT22;34227;51.840;4.146;2022-11-18T15:58:45;10.60;99.90
48416;DHT22;34227;51.840;4.146;2022-11-18T16:01:16;10.60;99.90
48416;DHT22;34227;51.840;4.146;2022-11-18T16:03:41;10.60;99.90
48416;DHT22;34227;51.840;4.146;2022-11-18T16:06:07;10.60;99.90
48416;DHT22;34227;51.840;4.146;2022-11-18T16:08:32;10.60;99.90
48416;DHT22;34227;51.840;4.146;2022-11-18T16:10:58;10.60;99.90
48416;DHT22;34227;51.840;4.146;2022-11-18T16:13:42;10.60;99.90
48416;DHT22;34227;51.840;4.146;2022-11-18T16:16:16;10.60;99.90
48416;DHT22;34227;51.840;4.146;2022-11-18T16:18:42;10.60;99.90
48416;DHT22;34227;51.840;4.146;2022-11-18T16:21:07;10.60;99.90
48416;DHT22;34227;51.840;4.146;2022-11-18T16:23:33;10.60;99.90
48416;DHT22;34227;51.840;4.146;2022-11-18T16:25:59;10.60;99.90
48416;DHT22;34227;51.840;4.146;2022-11-18T16:28:25;10.60;99.90
48416;DHT22;34227;51.840;4.146;2022-11-18T16:30:51;10.60;99.90
48416;DHT22;34227;51.840;4.146;2022-11-18T16:33:35;10.60;99.90
48416;DHT22;34227;51.840;4.146;2022-11-18T16:36:01;10.60;99.90
48416;DHT22;34227;51.840;4.146;2022-11-18T16:38:27;10.60;99.90
48416;DHT22;34227;51.840;4.146;2022-11-18T16:40:56;10.70;99.90
48416;DHT22;34227;51.840;4.146;2022-11-18T16:43:22;10.70;99.90
48416;DHT22;34227;51.840;4.146;2022-11-18T16:45:51;10.70;99.90
48416;DHT22;34227;51.840;4.146;2022-11-18T16:48:17;10.70;99.90
48416;DHT22;34227;51.840;4.146;2022-11-18T16:50:43;10.70;99.90
48416;DHT22;34227;51.840;4.146;2022-11-18T16:53:09;10.70;99.90
48416;DHT22;34227;51.840;4.146;2022-11-18T16:55:35;10.70;99.90
48416;DHT22;34227;51.840;4.146;2022-11-18T16:58:01;10.70;99.90
48416;DHT22;34227;51.840;4.146;2022-11-18T17:00:26;10.70;99.90
48416;DHT22;34227;51.840;4.146;2022-11-18T17:02:52;10.70;99.90
48416;DHT22;34227;51.840;4.146;2022-11-18T17:05:17;10.70;99.90
48416;DHT22;34227;51.840;4.146;2022-11-18T17:07:43;10.70;99.90
48416;DHT22;34227;51.840;4.146;2022-11-18T17:10:09;10.70;99.90
48416;DHT22;34227;51.840;4.146;2022-11-18T17:12:46;10.70;99.90
48416;DHT22;34227;51.840;4.146;2022-11-18T17:15:15;10.70;99.90
48416;DHT22;34227;51.840;4.146;2022-11-18T17:17:41;10.70;99.90
48416;DHT22;34227;51.840;4.146;2022-11-18T17:20:07;10.80;99.90
48416;DHT22;34227;51.840;4.146;2022-11-18T17:22:32;10.80;99.90
48416;DHT22;34227;51.840;4.146;2022-11-18T17:24:58;10.80;99.90
48416;DHT22;34227;51.840;4.146;2022-11-18T17:27:24;10.80;99.90
48416;DHT22;34227;51.840;4.146;2022-11-18T17:29:49;10.80;99.90
48416;DHT22;34227;51.840;4.146;2022-11-18T17:32:15;10.80;99.90
48416;DHT22;34227;51.840;4.146;2022-11-18T17:34:41;10.80;99.90
48416;DHT22;34227;51.840;4.146;2022-11-18T17:37:06;10.80;99.90
48416;DHT22;34227;51.840;4.146;2022-11-18T17:39:32;10.80;99.90
48416;DHT22;34227;51.840;4.146;2022-11-18T17:41:58;10.80;99.90
48416;DHT22;34227;51.840;4.146;2022-11-18T17:44:38;10.80;99.90
48416;DHT22;34227;51.840;4.146;2022-11-18T17:47:04;10.80;99.90
48416;DHT22;34227;51.840;4.146;2022-11-18T17:49:30;10.80;99.90
48416;DHT22;34227;51.840;4.146;2022-11-18T17:51:55;10.80;99.90
48416;DHT22;34227;51.840;4.146;2022-11-18T17:54:21;10.80;99.90